This is the latest recevied weather packets stored in our database for station/object NG6B-2. If no packets are shown the sender has not sent any weather packets the latest 10 day(s).
| Time | Temp. | Humidity | Pressure | Rain* | Wind** | Luminosity | Snow |
|---|---|---|---|---|---|---|---|
| 1777591876 | 27.22° C | 18% | 999.5 hPa | 0 mm | - | - | - |
| 1777590075 | 27.78° C | 17% | 999.8 hPa | 0 mm | - | - | - |
| 1777588274 | 27.78° C | 16% | 1000 hPa | 0 mm | - | - | - |
| 1777586473 | 28.89° C | 14% | 1000.3 hPa | 0 mm | - | - | - |
| 1777584672 | 28.89° C | 13% | 1000.9 hPa | 0 mm | - | - | - |
| 1777582871 | 29.44° C | 12% | 1001.4 hPa | 0 mm | - | - | - |
| 1777581070 | 28.89° C | 11% | 1002 hPa | 0 mm | - | - | - |
| 1777579269 | 28.33° C | 10% | 1002.8 hPa | 0 mm | - | - | - |
| 1777577468 | 28.89° C | 12% | 1003.1 hPa | 0 mm | - | - | - |
| 1777575667 | 27.78° C | 10% | 1003.5 hPa | 0 mm | - | - | - |
| 1777573866 | 27.22° C | 10% | 1004 hPa | 0 mm | - | - | - |
| 1777572065 | 25.56° C | 11% | 1004.7 hPa | 0 mm | - | - | - |
| 1777570264 | 24.44° C | 12% | 1005.2 hPa | 0 mm | - | - | - |
| 1777568463 | 23.89° C | 13% | 1005.4 hPa | 0 mm | - | - | - |
| 1777566662 | 22.78° C | 15% | 1005.5 hPa | 0 mm | - | - | - |
| 1777564861 | 21.67° C | 16% | 1005.4 hPa | 0 mm | - | - | - |
| 1777563060 | 21.11° C | 16% | 1005.4 hPa | 0 mm | - | - | - |
| 1777561259 | 20° C | 18% | 1005.8 hPa | 0 mm | - | - | - |
| 1777559458 | 18.33° C | 22% | 1006.1 hPa | 0 mm | - | - | - |
| 1777557657 | 17.22° C | 26% | 1005.8 hPa | 0 mm | - | - | - |
| 1777555856 | 16.67° C | 24% | 1005.6 hPa | 0 mm | - | - | - |
| 1777554055 | 16.67° C | 24% | 1005.4 hPa | 0 mm | - | - | - |
| 1777552254 | 15.56° C | 26% | 1005.4 hPa | 0 mm | - | - | - |
| 1777550453 | 15.56° C | 26% | 1005.1 hPa | 0 mm | - | - | - |
| 1777548652 | 15.56° C | 25% | 1005.2 hPa | 0 mm | - | - | - |
* Rain latest hour (hover to see other rain measurements)
** Current wind speed in m/s (hover to see current wind gust speed)